sensor_id;sensor_type;location;lat;lon;timestamp;pressure;altitude;pressure_sealevel;temperature;humidity
64862;BME280;62652;42.274;-71.436;2023-11-19T00:00:00;100050.0;;;3.888888888888889;82.7
64862;BME280;62652;42.274;-71.436;2023-11-19T00:01:00;100050.0;;;3.7222222222222237;83.1
64862;BME280;62652;42.274;-71.436;2023-11-19T00:02:00;100050.0;;;3.7777777777777763;83.2
64862;BME280;62652;42.274;-71.436;2023-11-19T00:03:00;100050.0;;;3.7222222222222237;82.9
64862;BME280;62652;42.274;-71.436;2023-11-19T00:04:00;100050.0;;;3.7222222222222237;83.8
64862;BME280;62652;42.274;-71.436;2023-11-19T00:05:01;100050.0;;;3.7777777777777763;83.1
64862;BME280;62652;42.274;-71.436;2023-11-19T00:06:01;100050.0;;;3.7777777777777763;82.9
64862;BME280;62652;42.274;-71.436;2023-11-19T00:07:00;100050.0;;;3.7777777777777763;82.8
64862;BME280;62652;42.274;-71.436;2023-11-19T00:08:00;100040.0;;;3.7222222222222237;83.2
64862;BME280;62652;42.274;-71.436;2023-11-19T00:09:00;100040.0;;;3.7222222222222237;83.0
64862;BME280;62652;42.274;-71.436;2023-11-19T00:10:00;100040.0;;;3.7222222222222237;82.8
64862;BME280;62652;42.274;-71.436;2023-11-19T00:11:00;100040.0;;;3.4999999999999982;83.6
64862;BME280;62652;42.274;-71.436;2023-11-19T00:12:00;100040.0;;;3.4999999999999982;84.1
64862;BME280;62652;42.274;-71.436;2023-11-19T00:13:00;100050.0;;;3.4999999999999982;83.8
64862;BME280;62652;42.274;-71.436;2023-11-19T00:14:00;100050.0;;;3.4999999999999982;83.7
64862;BME280;62652;42.274;-71.436;2023-11-19T00:15:00;100060.0;;;3.4999999999999982;84.2
64862;BME280;62652;42.274;-71.436;2023-11-19T00:16:01;100050.0;;;3.4999999999999982;84.7
64862;BME280;62652;42.274;-71.436;2023-11-19T00:17:00;100050.0;;;3.4999999999999982;84.7
64862;BME280;62652;42.274;-71.436;2023-11-19T00:18:00;100060.0;;;3.3888888888888897;85.3
64862;BME280;62652;42.274;-71.436;2023-11-19T00:19:00;100060.0;;;3.3888888888888897;85.1
64862;BME280;62652;42.274;-71.436;2023-11-19T00:20:00;100060.0;;;3.4999999999999982;83.9
64862;BME280;62652;42.274;-71.436;2023-11-19T00:21:00;100060.0;;;3.611111111111111;83.2
64862;BME280;62652;42.274;-71.436;2023-11-19T00:22:00;100060.0;;;3.3888888888888897;83.8
64862;BME280;62652;42.274;-71.436;2023-11-19T00:23:00;100070.0;;;3.3888888888888897;84.4
64862;BME280;62652;42.274;-71.436;2023-11-19T00:24:00;100070.0;;;3.277777777777777;84.5
64862;BME280;62652;42.274;-71.436;2023-11-19T00:25:00;100070.0;;;3.3888888888888897;84.5
64862;BME280;62652;42.274;-71.436;2023-11-19T00:26:00;100070.0;;;3.3888888888888897;84.7
64862;BME280;62652;42.274;-71.436;2023-11-19T00:27:00;100070.0;;;3.277777777777777;84.6
64862;BME280;62652;42.274;-71.436;2023-11-19T00:28:00;100070.0;;;3.277777777777777;84.6
64862;BME280;62652;42.274;-71.436;2023-11-19T00:29:00;100070.0;;;3.277777777777777;84.4
64862;BME280;62652;42.274;-71.436;2023-11-19T00:30:01;100070.0;;;3.277777777777777;85.2
64862;BME280;62652;42.274;-71.436;2023-11-19T00:31:00;100070.0;;;3.277777777777777;85.6
64862;BME280;62652;42.274;-71.436;2023-11-19T00:32:00;100070.0;;;3.277777777777777;85.5
64862;BME280;62652;42.274;-71.436;2023-11-19T00:33:00;100070.0;;;3.2222222222222205;85.7
64862;BME280;62652;42.274;-71.436;2023-11-19T00:34:01;100070.0;;;3.2222222222222205;85.4
64862;BME280;62652;42.274;-71.436;2023-11-19T00:35:00;100070.0;;;3.3888888888888897;83.0
64862;BME280;62652;42.274;-71.436;2023-11-19T00:36:00;100070.0;;;3.3888888888888897;83.5
64862;BME280;62652;42.274;-71.436;2023-11-19T00:37:00;100080.0;;;3.4999999999999982;82.8
64862;BME280;62652;42.274;-71.436;2023-11-19T00:38:00;100080.0;;;3.4999999999999982;82.7
64862;BME280;62652;42.274;-71.436;2023-11-19T00:39:00;100080.0;;;3.3888888888888897;83.3
64862;BME280;62652;42.274;-71.436;2023-11-19T00:40:01;100070.0;;;3.277777777777777;83.8
64862;BME280;62652;42.274;-71.436;2023-11-19T00:41:00;100070.0;;;3.277777777777777;83.7
64862;BME280;62652;42.274;-71.436;2023-11-19T00:42:00;100080.0;;;3.2222222222222205;84.6
64862;BME280;62652;42.274;-71.436;2023-11-19T00:43:00;100080.0;;;3.277777777777777;84.4
64862;BME280;62652;42.274;-71.436;2023-11-19T00:44:00;100080.0;;;3.277777777777777;84.1
64862;BME280;62652;42.274;-71.436;2023-11-19T00:45:00;100080.0;;;3.2222222222222205;84.2
64862;BME280;62652;42.274;-71.436;2023-11-19T00:46:00;100080.0;;;3.111111111111112;85.0
64862;BME280;62652;42.274;-71.436;2023-11-19T00:47:00;100080.0;;;3.2222222222222205;85.4
64862;BME280;62652;42.274;-71.436;2023-11-19T00:48:00;100080.0;;;3.2222222222222205;85.2
64862;BME280;62652;42.274;-71.436;2023-11-19T00:49:01;100080.0;;;3.111111111111112;85.6
64862;BME280;62652;42.274;-71.436;2023-11-19T00:50:01;100080.0;;;3.111111111111112;85.7
64862;BME280;62652;42.274;-71.436;2023-11-19T00:51:00;100080.0;;;3.111111111111112;85.2
64862;BME280;62652;42.274;-71.436;2023-11-19T00:52:01;100080.0;;;2.999999999999999;85.9
64862;BME280;62652;42.274;-71.436;2023-11-19T00:53:00;100080.0;;;3.111111111111112;86.1
64862;BME280;62652;42.274;-71.436;2023-11-19T00:54:00;100080.0;;;3.111111111111112;86.3
64862;BME280;62652;42.274;-71.436;2023-11-19T00:55:00;100080.0;;;3.111111111111112;86.2
64862;BME280;62652;42.274;-71.436;2023-11-19T00:56:01;100080.0;;;3.111111111111112;86.0
64862;BME280;62652;42.274;-71.436;2023-11-19T00:57:00;100080.0;;;2.999999999999999;86.7
64862;BME280;62652;42.274;-71.436;2023-11-19T00:58:00;100080.0;;;2.8888888888888906;87.6
64862;BME280;62652;42.274;-71.436;2023-11-19T00:59:00;100080.0;;;2.8888888888888906;88.6
64862;BME280;62652;42.274;-71.436;2023-11-19T01:00:01;100080.0;;;2.8888888888888906;89.1
64862;BME280;62652;42.274;-71.436;2023-11-19T01:01:00;100080.0;;;2.8888888888888906;89.1
64862;BME280;62652;42.274;-71.436;2023-11-19T01:02:01;100080.0;;;2.8888888888888906;88.8
64862;BME280;62652;42.274;-71.436;2023-11-19T01:03:01;100080.0;;;2.8888888888888906;88.7
64862;BME280;62652;42.274;-71.436;2023-11-19T01:04:00;100080.0;;;2.7777777777777777;89.0
64862;BME280;62652;42.274;-71.436;2023-11-19T01:05:00;100080.0;;;2.8888888888888906;88.3
64862;BME280;62652;42.274;-71.436;2023-11-19T01:06:00;100080.0;;;2.8888888888888906;88.5
64862;BME280;62652;42.274;-71.436;2023-11-19T01:07:01;100080.0;;;2.8888888888888906;89.0
64862;BME280;62652;42.274;-71.436;2023-11-19T01:08:00;100080.0;;;2.8888888888888906;89.1
64862;BME280;62652;42.274;-71.436;2023-11-19T01:09:01;100080.0;;;2.8888888888888906;89.0
64862;BME280;62652;42.274;-71.436;2023-11-19T01:10:00;100080.0;;;2.7777777777777777;88.5
64862;BME280;62652;42.274;-71.436;2023-11-19T01:11:01;100070.0;;;2.7777777777777777;88.4
64862;BME280;62652;42.274;-71.436;2023-11-19T01:12:01;100070.0;;;2.7777777777777777;88.2
64862;BME280;62652;42.274;-71.436;2023-11-19T01:13:00;100070.0;;;2.7222222222222214;87.4
64862;BME280;62652;42.274;-71.436;2023-11-19T01:14:01;100070.0;;;2.7777777777777777;86.2
64862;BME280;62652;42.274;-71.436;2023-11-19T01:15:01;100070.0;;;2.7777777777777777;86.5
64862;BME280;62652;42.274;-71.436;2023-11-19T01:16:01;100080.0;;;2.7777777777777777;86.9
64862;BME280;62652;42.274;-71.436;2023-11-19T01:17:01;100080.0;;;2.7777777777777777;86.7
64862;BME280;62652;42.274;-71.436;2023-11-19T01:18:00;100090.0;;;2.7222222222222214;86.9
64862;BME280;62652;42.274;-71.436;2023-11-19T01:19:00;100090.0;;;2.7222222222222214;87.6
64862;BME280;62652;42.274;-71.436;2023-11-19T01:20:00;100090.0;;;2.7222222222222214;87.6
64862;BME280;62652;42.274;-71.436;2023-11-19T01:21:00;100100.0;;;2.7777777777777777;87.4
64862;BME280;62652;42.274;-71.436;2023-11-19T01:22:01;100090.0;;;2.7777777777777777;87.3
64862;BME280;62652;42.274;-71.436;2023-11-19T01:23:00;100100.0;;;2.7777777777777777;86.9
64862;BME280;62652;42.274;-71.436;2023-11-19T01:24:00;100100.0;;;2.7222222222222214;87.5
64862;BME280;62652;42.274;-71.436;2023-11-19T01:25:00;100110.0;;;2.6111111111111125;87.5
64862;BME280;62652;42.274;-71.436;2023-11-19T01:26:01;100110.0;;;2.5;87.8
64862;BME280;62652;42.274;-71.436;2023-11-19T01:27:00;100110.0;;;2.5;88.5
64862;BME280;62652;42.274;-71.436;2023-11-19T01:28:00;100110.0;;;2.7222222222222214;88.4
64862;BME280;62652;42.274;-71.436;2023-11-19T01:29:00;100120.0;;;2.6111111111111125;88.5
64862;BME280;62652;42.274;-71.436;2023-11-19T01:30:01;100120.0;;;2.5;89.4
64862;BME280;62652;42.274;-71.436;2023-11-19T01:31:01;100120.0;;;2.5;88.7
64862;BME280;62652;42.274;-71.436;2023-11-19T01:32:01;100120.0;;;2.5;88.6
64862;BME280;62652;42.274;-71.436;2023-11-19T01:33:01;100130.0;;;2.6111111111111125;88.7
64862;BME280;62652;42.274;-71.436;2023-11-19T01:34:00;100130.0;;;2.6111111111111125;88.0
64862;BME280;62652;42.274;-71.436;2023-11-19T01:35:00;100120.0;;;2.6111111111111125;88.1
64862;BME280;62652;42.274;-71.436;2023-11-19T01:36:00;100120.0;;;2.6111111111111125;88.0
64862;BME280;62652;42.274;-71.436;2023-11-19T01:37:00;100120.0;;;2.5;88.5
64862;BME280;62652;42.274;-71.436;2023-11-19T01:38:00;100130.0;;;2.5;89.0
64862;BME280;62652;42.274;-71.436;2023-11-19T01:39:00;100130.0;;;2.5;89.8
64862;BME280;62652;42.274;-71.436;2023-11-19T01:40:01;100130.0;;;2.5;90.9
64862;BME280;62652;42.274;-71.436;2023-11-19T01:41:01;100130.0;;;2.5;91.4
64862;BME280;62652;42.274;-71.436;2023-11-19T01:42:01;100140.0;;;2.3888888888888875;90.5
64862;BME280;62652;42.274;-71.436;2023-11-19T01:43:00;100140.0;;;2.3888888888888875;92.0
64862;BME280;62652;42.274;-71.436;2023-11-19T01:44:01;100150.0;;;2.2777777777777786;91.8
64862;BME280;62652;42.274;-71.436;2023-11-19T01:45:01;100150.0;;;2.2777777777777786;92.2
64862;BME280;62652;42.274;-71.436;2023-11-19T01:46:01;100150.0;;;2.2777777777777786;92.2
64862;BME280;62652;42.274;-71.436;2023-11-19T01:47:01;100160.0;;;2.2777777777777786;92.6
64862;BME280;62652;42.274;-71.436;2023-11-19T01:48:02;100160.0;;;2.2222222222222223;93.1
64862;BME280;62652;42.274;-71.436;2023-11-19T01:49:01;100160.0;;;2.2222222222222223;92.9
64862;BME280;62652;42.274;-71.436;2023-11-19T01:50:01;100160.0;;;2.1111111111111094;93.1
64862;BME280;62652;42.274;-71.436;2023-11-19T01:51:01;100160.0;;;2.1111111111111094;93.6
64862;BME280;62652;42.274;-71.436;2023-11-19T01:52:00;100160.0;;;2.000000000000001;94.2
64862;BME280;62652;42.274;-71.436;2023-11-19T01:53:01;100150.0;;;2.000000000000001;94.6
64862;BME280;62652;42.274;-71.436;2023-11-19T01:54:01;100150.0;;;2.000000000000001;95.0
64862;BME280;62652;42.274;-71.436;2023-11-19T01:55:01;100150.0;;;1.8888888888888882;95.4
64862;BME280;62652;42.274;-71.436;2023-11-19T01:56:01;100160.0;;;1.8888888888888882;95.8
64862;BME280;62652;42.274;-71.436;2023-11-19T01:57:00;100160.0;;;1.7777777777777795;96.1
64862;BME280;62652;42.274;-71.436;2023-11-19T01:58:01;100150.0;;;1.7777777777777795;96.2
64862;BME280;62652;42.274;-71.436;2023-11-19T01:59:01;100150.0;;;1.722222222222223;97.2
64862;BME280;62652;42.274;-71.436;2023-11-19T02:00:00;100150.0;;;1.722222222222223;97.5
64862;BME280;62652;42.274;-71.436;2023-11-19T02:01:01;100150.0;;;1.722222222222223;96.9
64862;BME280;62652;42.274;-71.436;2023-11-19T02:02:01;100150.0;;;1.722222222222223;96.3
64862;BME280;62652;42.274;-71.436;2023-11-19T02:03:00;100150.0;;;1.722222222222223;96.5
64862;BME280;62652;42.274;-71.436;2023-11-19T02:04:01;100150.0;;;1.722222222222223;96.8
64862;BME280;62652;42.274;-71.436;2023-11-19T02:05:00;100150.0;;;1.722222222222223;96.0
64862;BME280;62652;42.274;-71.436;2023-11-19T02:06:01;100150.0;;;1.7777777777777795;95.2
64862;BME280;62652;42.274;-71.436;2023-11-19T02:07:01;100140.0;;;1.7777777777777795;95.1
64862;BME280;62652;42.274;-71.436;2023-11-19T02:08:01;100150.0;;;1.7777777777777795;95.2
64862;BME280;62652;42.274;-71.436;2023-11-19T02:09:00;100150.0;;;1.7777777777777795;94.4
64862;BME280;62652;42.274;-71.436;2023-11-19T02:10:01;100160.0;;;1.7777777777777795;94.6
64862;BME280;62652;42.274;-71.436;2023-11-19T02:11:00;100160.0;;;1.7777777777777795;94.5
64862;BME280;62652;42.274;-71.436;2023-11-19T02:12:00;100160.0;;;1.7777777777777795;94.4
64862;BME280;62652;42.274;-71.436;2023-11-19T02:13:01;100150.0;;;1.722222222222223;94.6
64862;BME280;62652;42.274;-71.436;2023-11-19T02:14:01;100160.0;;;1.722222222222223;94.4
64862;BME280;62652;42.274;-71.436;2023-11-19T02:15:01;100160.0;;;1.722222222222223;94.6
64862;BME280;62652;42.274;-71.436;2023-11-19T02:16:00;100150.0;;;1.6111111111111103;94.9
64862;BME280;62652;42.274;-71.436;2023-11-19T02:17:00;100160.0;;;1.6111111111111103;95.1
64862;BME280;62652;42.274;-71.436;2023-11-19T02:19:00;100150.0;;;1.5000000000000016;95.7
64862;BME280;62652;42.274;-71.436;2023-11-19T02:20:00;100150.0;;;1.5000000000000016;96.1
64862;BME280;62652;42.274;-71.436;2023-11-19T02:21:01;100150.0;;;1.3888888888888888;95.8
64862;BME280;62652;42.274;-71.436;2023-11-19T02:22:00;100140.0;;;1.5000000000000016;96.3
64862;BME280;62652;42.274;-71.436;2023-11-19T02:23:01;100140.0;;;1.3888888888888888;96.7
64862;BME280;62652;42.274;-71.436;2023-11-19T02:24:03;100150.0;;;1.3888888888888888;98.0
64862;BME280;62652;42.274;-71.436;2023-11-19T02:25:04;100150.0;;;1.3888888888888888;98.7
64862;BME280;62652;42.274;-71.436;2023-11-19T02:26:08;100150.0;;;1.3888888888888888;98.6
64862;BME280;62652;42.274;-71.436;2023-11-19T02:27:04;100150.0;;;1.3888888888888888;98.2
64862;BME280;62652;42.274;-71.436;2023-11-19T02:28:01;100140.0;;;1.3888888888888888;97.7
64862;BME280;62652;42.274;-71.436;2023-11-19T02:29:01;100150.0;;;1.3888888888888888;97.5
64862;BME280;62652;42.274;-71.436;2023-11-19T02:30:01;100150.0;;;1.3888888888888888;96.9
64862;BME280;62652;42.274;-71.436;2023-11-19T02:31:00;100140.0;;;1.3888888888888888;97.1
64862;BME280;62652;42.274;-71.436;2023-11-19T02:32:00;100150.0;;;1.3888888888888888;97.2
64862;BME280;62652;42.274;-71.436;2023-11-19T02:33:01;100150.0;;;1.3888888888888888;97.4
64862;BME280;62652;42.274;-71.436;2023-11-19T02:34:01;100150.0;;;1.3888888888888888;97.8
64862;BME280;62652;42.274;-71.436;2023-11-19T02:35:00;100150.0;;;1.3888888888888888;97.8
64862;BME280;62652;42.274;-71.436;2023-11-19T02:36:00;100150.0;;;1.3888888888888888;97.6
64862;BME280;62652;42.274;-71.436;2023-11-19T02:37:00;100150.0;;;1.3888888888888888;97.8
64862;BME280;62652;42.274;-71.436;2023-11-19T02:38:00;100160.0;;;1.3888888888888888;98.2
64862;BME280;62652;42.274;-71.436;2023-11-19T02:39:00;100160.0;;;1.2777777777777761;98.6
64862;BME280;62652;42.274;-71.436;2023-11-19T02:40:00;100160.0;;;1.2777777777777761;99.2
64862;BME280;62652;42.274;-71.436;2023-11-19T02:41:03;100160.0;;;1.2222222222222239;99.5
64862;BME280;62652;42.274;-71.436;2023-11-19T02:42:00;100160.0;;;1.2222222222222239;99.8
64862;BME280;62652;42.274;-71.436;2023-11-19T02:43:01;100160.0;;;1.1111111111111112;99.7
64862;BME280;62652;42.274;-71.436;2023-11-19T02:44:00;100160.0;;;1.1111111111111112;100.0
64862;BME280;62652;42.274;-71.436;2023-11-19T02:45:01;100160.0;;;1.1111111111111112;100.0
64862;BME280;62652;42.274;-71.436;2023-11-19T02:46:01;100170.0;;;1.1111111111111112;100.0
64862;BME280;62652;42.274;-71.436;2023-11-19T02:47:00;100160.0;;;0.9999999999999984;100.0
64862;BME280;62652;42.274;-71.436;2023-11-19T02:48:00;100160.0;;;0.9999999999999984;100.0
64862;BME280;62652;42.274;-71.436;2023-11-19T02:49:00;100160.0;;;0.9999999999999984;100.0
64862;BME280;62652;42.274;-71.436;2023-11-19T02:50:01;100160.0;;;0.9999999999999984;100.0
64862;BME280;62652;42.274;-71.436;2023-11-19T02:51:01;100170.0;;;0.8888888888888897;100.0
64862;BME280;62652;42.274;-71.436;2023-11-19T02:52:00;100170.0;;;0.9999999999999984;100.0
64862;BME280;62652;42.274;-71.436;2023-11-19T02:53:00;100170.0;;;0.9999999999999984;100.0
64862;BME280;62652;42.274;-71.436;2023-11-19T02:54:01;100170.0;;;1.1111111111111112;100.0
64862;BME280;62652;42.274;-71.436;2023-11-19T02:55:00;100170.0;;;0.9999999999999984;100.0
64862;BME280;62652;42.274;-71.436;2023-11-19T02:56:00;100170.0;;;0.9999999999999984;100.0
64862;BME280;62652;42.274;-71.436;2023-11-19T02:57:01;100170.0;;;0.8888888888888897;100.0
64862;BME280;62652;42.274;-71.436;2023-11-19T02:58:00;100170.0;;;0.8888888888888897;100.0
64862;BME280;62652;42.274;-71.436;2023-11-19T02:59:00;100170.0;;;0.9999999999999984;100.0
64862;BME280;62652;42.274;-71.436;2023-11-19T03:00:01;100160.0;;;0.9999999999999984;100.0
64862;BME280;62652;42.274;-71.436;2023-11-19T03:01:01;100170.0;;;0.9999999999999984;100.0
64862;BME280;62652;42.274;-71.436;2023-11-19T03:02:00;100160.0;;;0.8888888888888897;100.0
64862;BME280;62652;42.274;-71.436;2023-11-19T03:03:00;100170.0;;;0.8888888888888897;100.0
64862;BME280;62652;42.274;-71.436;2023-11-19T03:04:01;100170.0;;;0.8888888888888897;100.0
64862;BME280;62652;42.274;-71.436;2023-11-19T03:05:00;100170.0;;;0.8888888888888897;100.0
64862;BME280;62652;42.274;-71.436;2023-11-19T03:06:00;100170.0;;;0.777777777777777;100.0
64862;BME280;62652;42.274;-71.436;2023-11-19T03:07:00;100160.0;;;0.777777777777777;100.0
64862;BME280;62652;42.274;-71.436;2023-11-19T03:08:01;100170.0;;;0.777777777777777;100.0
64862;BME280;62652;42.274;-71.436;2023-11-19T03:09:00;100170.0;;;0.8888888888888897;100.0
64862;BME280;62652;42.274;-71.436;2023-11-19T03:10:01;100170.0;;;0.8888888888888897;100.0
64862;BME280;62652;42.274;-71.436;2023-11-19T03:11:00;100170.0;;;0.8888888888888897;99.1
64862;BME280;62652;42.274;-71.436;2023-11-19T03:12:01;100170.0;;;0.9999999999999984;99.0
64862;BME280;62652;42.274;-71.436;2023-11-19T03:13:01;100170.0;;;0.8888888888888897;97.6
64862;BME280;62652;42.274;-71.436;2023-11-19T03:14:00;100170.0;;;0.9999999999999984;96.5
64862;BME280;62652;42.274;-71.436;2023-11-19T03:15:01;100170.0;;;1.1111111111111112;96.0
64862;BME280;62652;42.274;-71.436;2023-11-19T03:16:00;100170.0;;;1.1111111111111112;96.6
64862;BME280;62652;42.274;-71.436;2023-11-19T03:17:00;100160.0;;;0.9999999999999984;96.0
64862;BME280;62652;42.274;-71.436;2023-11-19T03:18:00;100170.0;;;0.9999999999999984;95.9
64862;BME280;62652;42.274;-71.436;2023-11-19T03:19:00;100160.0;;;0.9999999999999984;95.4
64862;BME280;62652;42.274;-71.436;2023-11-19T03:20:00;100160.0;;;0.9999999999999984;95.1
64862;BME280;62652;42.274;-71.436;2023-11-19T03:21:00;100160.0;;;0.9999999999999984;95.0
64862;BME280;62652;42.274;-71.436;2023-11-19T03:22:01;100160.0;;;1.1111111111111112;94.7
64862;BME280;62652;42.274;-71.436;2023-11-19T03:23:01;100150.0;;;1.1111111111111112;94.1
64862;BME280;62652;42.274;-71.436;2023-11-19T03:24:01;100150.0;;;1.1111111111111112;93.9
64862;BME280;62652;42.274;-71.436;2023-11-19T03:25:01;100150.0;;;1.1111111111111112;94.0
64862;BME280;62652;42.274;-71.436;2023-11-19T03:26:01;100160.0;;;1.2222222222222239;93.5
64862;BME280;62652;42.274;-71.436;2023-11-19T03:27:00;100150.0;;;1.2222222222222239;93.2
64862;BME280;62652;42.274;-71.436;2023-11-19T03:28:00;100150.0;;;1.2777777777777761;92.9
64862;BME280;62652;42.274;-71.436;2023-11-19T03:29:00;100150.0;;;1.2777777777777761;92.0
64862;BME280;62652;42.274;-71.436;2023-11-19T03:30:00;100150.0;;;1.3888888888888888;90.5
64862;BME280;62652;42.274;-71.436;2023-11-19T03:31:01;100150.0;;;1.3888888888888888;90.3
64862;BME280;62652;42.274;-71.436;2023-11-19T03:32:00;100150.0;;;1.3888888888888888;90.5
64862;BME280;62652;42.274;-71.436;2023-11-19T03:33:00;100150.0;;;1.3888888888888888;90.5
64862;BME280;62652;42.274;-71.436;2023-11-19T03:34:00;100150.0;;;1.6111111111111103;89.4
64862;BME280;62652;42.274;-71.436;2023-11-19T03:35:01;100150.0;;;1.6111111111111103;89.2
64862;BME280;62652;42.274;-71.436;2023-11-19T03:36:00;100150.0;;;1.6111111111111103;89.1
64862;BME280;62652;42.274;-71.436;2023-11-19T03:37:00;100150.0;;;1.722222222222223;88.0
64862;BME280;62652;42.274;-71.436;2023-11-19T03:38:00;100150.0;;;1.6111111111111103;88.4
64862;BME280;62652;42.274;-71.436;2023-11-19T03:39:01;100150.0;;;1.6111111111111103;88.8
64862;BME280;62652;42.274;-71.436;2023-11-19T03:40:00;100150.0;;;1.6111111111111103;89.7
64862;BME280;62652;42.274;-71.436;2023-11-19T03:41:00;100150.0;;;1.5000000000000016;90.3
64862;BME280;62652;42.274;-71.436;2023-11-19T03:42:00;100150.0;;;1.5000000000000016;89.7
64862;BME280;62652;42.274;-71.436;2023-11-19T03:43:00;100160.0;;;1.5000000000000016;90.0
64862;BME280;62652;42.274;-71.436;2023-11-19T03:44:00;100160.0;;;1.3888888888888888;90.5
64862;BME280;62652;42.274;-71.436;2023-11-19T03:45:01;100160.0;;;1.5000000000000016;90.2
64862;BME280;62652;42.274;-71.436;2023-11-19T03:46:00;100160.0;;;1.5000000000000016;90.2
64862;BME280;62652;42.274;-71.436;2023-11-19T03:47:00;100170.0;;;1.3888888888888888;90.0
64862;BME280;62652;42.274;-71.436;2023-11-19T03:48:01;100170.0;;;1.5000000000000016;90.1
64862;BME280;62652;42.274;-71.436;2023-11-19T03:49:00;100160.0;;;1.722222222222223;88.3
64862;BME280;62652;42.274;-71.436;2023-11-19T03:50:01;100160.0;;;1.6111111111111103;89.2
64862;BME280;62652;42.274;-71.436;2023-11-19T03:51:00;100170.0;;;1.7777777777777795;87.8
64862;BME280;62652;42.274;-71.436;2023-11-19T03:52:00;100170.0;;;1.722222222222223;87.9
64862;BME280;62652;42.274;-71.436;2023-11-19T03:53:00;100170.0;;;1.6111111111111103;88.8
64862;BME280;62652;42.274;-71.436;2023-11-19T03:54:00;100170.0;;;1.6111111111111103;88.4
64862;BME280;62652;42.274;-71.436;2023-11-19T03:55:01;100170.0;;;1.6111111111111103;88.9
64862;BME280;62652;42.274;-71.436;2023-11-19T03:56:00;100170.0;;;1.6111111111111103;89.5
64862;BME280;62652;42.274;-71.436;2023-11-19T03:57:00;100180.0;;;1.5000000000000016;90.1
64862;BME280;62652;42.274;-71.436;2023-11-19T03:58:00;100170.0;;;1.722222222222223;89.6
64862;BME280;62652;42.274;-71.436;2023-11-19T03:59:01;100180.0;;;1.6111111111111103;88.7
64862;BME280;62652;42.274;-71.436;2023-11-19T04:00:01;100180.0;;;1.6111111111111103;89.1
64862;BME280;62652;42.274;-71.436;2023-11-19T04:01:01;100180.0;;;1.722222222222223;88.4
64862;BME280;62652;42.274;-71.436;2023-11-19T04:02:00;100180.0;;;1.6111111111111103;88.6
64862;BME280;62652;42.274;-71.436;2023-11-19T04:03:01;100190.0;;;1.722222222222223;88.8
64862;BME280;62652;42.274;-71.436;2023-11-19T04:04:00;100190.0;;;1.6111111111111103;89.1
64862;BME280;62652;42.274;-71.436;2023-11-19T04:05:00;100190.0;;;1.5000000000000016;89.2
64862;BME280;62652;42.274;-71.436;2023-11-19T04:06:00;100190.0;;;1.5000000000000016;89.3
64862;BME280;62652;42.274;-71.436;2023-11-19T04:07:01;100200.0;;;1.5000000000000016;89.5
64862;BME280;62652;42.274;-71.436;2023-11-19T04:08:00;100200.0;;;1.6111111111111103;88.5
64862;BME280;62652;42.274;-71.436;2023-11-19T04:09:00;100190.0;;;1.6111111111111103;88.3
64862;BME280;62652;42.274;-71.436;2023-11-19T04:10:00;100190.0;;;1.722222222222223;88.0
64862;BME280;62652;42.274;-71.436;2023-11-19T04:11:00;100200.0;;;1.722222222222223;88.0
64862;BME280;62652;42.274;-71.436;2023-11-19T04:12:01;100200.0;;;1.6111111111111103;88.6
64862;BME280;62652;42.274;-71.436;2023-11-19T04:13:00;100200.0;;;1.6111111111111103;88.4
64862;BME280;62652;42.274;-71.436;2023-11-19T04:14:00;100200.0;;;1.6111111111111103;88.1
64862;BME280;62652;42.274;-71.436;2023-11-19T04:15:00;100200.0;;;1.6111111111111103;88.5
64862;BME280;62652;42.274;-71.436;2023-11-19T04:16:00;100200.0;;;1.6111111111111103;88.4
64862;BME280;62652;42.274;-71.436;2023-11-19T04:17:00;100200.0;;;1.6111111111111103;88.7
64862;BME280;62652;42.274;-71.436;2023-11-19T04:18:00;100200.0;;;1.6111111111111103;88.3
64862;BME280;62652;42.274;-71.436;2023-11-19T04:19:00;100200.0;;;1.6111111111111103;88.4
64862;BME280;62652;42.274;-71.436;2023-11-19T04:20:00;100190.0;;;1.6111111111111103;89.1
64862;BME280;62652;42.274;-71.436;2023-11-19T04:21:01;100190.0;;;1.5000000000000016;89.8
64862;BME280;62652;42.274;-71.436;2023-11-19T04:22:00;100190.0;;;1.6111111111111103;89.7
64862;BME280;62652;42.274;-71.436;2023-11-19T04:23:00;100190.0;;;1.5000000000000016;89.7
64862;BME280;62652;42.274;-71.436;2023-11-19T04:24:00;100190.0;;;1.5000000000000016;90.1
64862;BME280;62652;42.274;-71.436;2023-11-19T04:25:00;100190.0;;;1.5000000000000016;90.3
64862;BME280;62652;42.274;-71.436;2023-11-19T04:26:01;100180.0;;;1.3888888888888888;90.2
64862;BME280;62652;42.274;-71.436;2023-11-19T04:27:00;100180.0;;;1.3888888888888888;90.4
64862;BME280;62652;42.274;-71.436;2023-11-19T04:28:01;100180.0;;;1.3888888888888888;91.1
64862;BME280;62652;42.274;-71.436;2023-11-19T04:29:00;100180.0;;;1.3888888888888888;91.5
64862;BME280;62652;42.274;-71.436;2023-11-19T04:30:01;100190.0;;;1.3888888888888888;91.6